sensor_id;sensor_type;location;lat;lon;timestamp;P1;durP1;ratioP1;P2;durP2;ratioP2
42614;SDS011;28754;47.700;7.924;2023-04-30T00:01:06;7.18;;;4.25;;
42614;SDS011;28754;47.700;7.924;2023-04-30T00:03:52;4.47;;;3.15;;
42614;SDS011;28754;47.700;7.924;2023-04-30T00:06:39;6.55;;;3.90;;
42614;SDS011;28754;47.700;7.924;2023-04-30T00:09:26;6.05;;;3.88;;
42614;SDS011;28754;47.700;7.924;2023-04-30T00:12:13;5.55;;;3.47;;
42614;SDS011;28754;47.700;7.924;2023-04-30T00:14:59;7.80;;;3.70;;
42614;SDS011;28754;47.700;7.924;2023-04-30T00:17:46;5.75;;;3.67;;
42614;SDS011;28754;47.700;7.924;2023-04-30T00:20:33;4.57;;;3.25;;
42614;SDS011;28754;47.700;7.924;2023-04-30T00:23:20;4.43;;;3.45;;
42614;SDS011;28754;47.700;7.924;2023-04-30T00:26:07;5.40;;;3.60;;
42614;SDS011;28754;47.700;7.924;2023-04-30T00:28:55;6.95;;;3.53;;
42614;SDS011;28754;47.700;7.924;2023-04-30T00:31:42;4.47;;;3.13;;
42614;SDS011;28754;47.700;7.924;2023-04-30T00:34:29;5.07;;;3.00;;
42614;SDS011;28754;47.700;7.924;2023-04-30T00:37:16;4.22;;;3.30;;
42614;SDS011;28754;47.700;7.924;2023-04-30T00:40:03;5.38;;;3.55;;
42614;SDS011;28754;47.700;7.924;2023-04-30T00:42:50;6.15;;;4.05;;
42614;SDS011;28754;47.700;7.924;2023-04-30T00:45:40;7.68;;;3.85;;
42614;SDS011;28754;47.700;7.924;2023-04-30T00:48:27;5.47;;;3.75;;
42614;SDS011;28754;47.700;7.924;2023-04-30T00:51:14;9.45;;;3.63;;
42614;SDS011;28754;47.700;7.924;2023-04-30T00:54:01;6.68;;;4.07;;
42614;SDS011;28754;47.700;7.924;2023-04-30T00:56:48;6.38;;;3.60;;
42614;SDS011;28754;47.700;7.924;2023-04-30T00:59:35;5.45;;;3.97;;
42614;SDS011;28754;47.700;7.924;2023-04-30T01:02:23;4.82;;;3.33;;
42614;SDS011;28754;47.700;7.924;2023-04-30T01:05:10;5.68;;;3.78;;
42614;SDS011;28754;47.700;7.924;2023-04-30T01:07:57;4.57;;;3.40;;
42614;SDS011;28754;47.700;7.924;2023-04-30T01:10:49;7.38;;;4.38;;
42614;SDS011;28754;47.700;7.924;2023-04-30T01:16:42;6.22;;;4.22;;
42614;SDS011;28754;47.700;7.924;2023-04-30T01:19:45;6.03;;;3.35;;
42614;SDS011;28754;47.700;7.924;2023-04-30T01:25:50;7.25;;;4.82;;
42614;SDS011;28754;47.700;7.924;2023-04-30T01:28:52;5.10;;;3.78;;
42614;SDS011;28754;47.700;7.924;2023-04-30T01:31:42;6.93;;;4.55;;
42614;SDS011;28754;47.700;7.924;2023-04-30T01:34:30;6.28;;;3.80;;
42614;SDS011;28754;47.700;7.924;2023-04-30T01:40:38;7.63;;;4.38;;
42614;SDS011;28754;47.700;7.924;2023-04-30T01:43:39;8.18;;;4.40;;
42614;SDS011;28754;47.700;7.924;2023-04-30T01:47:03;7.57;;;4.38;;
42614;SDS011;28754;47.700;7.924;2023-04-30T01:53:21;7.13;;;4.47;;
42614;SDS011;28754;47.700;7.924;2023-04-30T01:56:20;9.68;;;5.25;;
42614;SDS011;28754;47.700;7.924;2023-04-30T01:59:20;6.15;;;4.38;;
42614;SDS011;28754;47.700;7.924;2023-04-30T02:09:24;6.75;;;5.13;;
42614;SDS011;28754;47.700;7.924;2023-04-30T02:12:11;7.28;;;4.63;;
42614;SDS011;28754;47.700;7.924;2023-04-30T02:14:58;8.00;;;5.22;;
42614;SDS011;28754;47.700;7.924;2023-04-30T02:17:45;6.10;;;4.50;;
42614;SDS011;28754;47.700;7.924;2023-04-30T02:20:31;6.97;;;4.45;;
42614;SDS011;28754;47.700;7.924;2023-04-30T02:23:18;6.47;;;3.95;;
42614;SDS011;28754;47.700;7.924;2023-04-30T02:26:05;6.95;;;4.60;;
42614;SDS011;28754;47.700;7.924;2023-04-30T02:28:52;5.78;;;3.92;;
42614;SDS011;28754;47.700;7.924;2023-04-30T02:31:39;8.13;;;4.30;;
42614;SDS011;28754;47.700;7.924;2023-04-30T02:34:30;6.50;;;4.80;;
42614;SDS011;28754;47.700;7.924;2023-04-30T02:37:16;6.95;;;5.35;;
42614;SDS011;28754;47.700;7.924;2023-04-30T02:40:03;8.27;;;4.97;;
42614;SDS011;28754;47.700;7.924;2023-04-30T02:42:51;6.38;;;4.25;;
42614;SDS011;28754;47.700;7.924;2023-04-30T02:45:40;7.10;;;4.05;;
42614;SDS011;28754;47.700;7.924;2023-04-30T02:48:27;7.20;;;5.03;;
42614;SDS011;28754;47.700;7.924;2023-04-30T02:51:14;6.78;;;4.53;;
42614;SDS011;28754;47.700;7.924;2023-04-30T02:54:00;7.07;;;4.60;;
42614;SDS011;28754;47.700;7.924;2023-04-30T02:56:47;7.70;;;4.70;;
42614;SDS011;28754;47.700;7.924;2023-04-30T02:59:34;6.47;;;4.35;;
42614;SDS011;28754;47.700;7.924;2023-04-30T03:02:21;7.28;;;4.63;;
42614;SDS011;28754;47.700;7.924;2023-04-30T03:05:09;7.35;;;4.15;;
42614;SDS011;28754;47.700;7.924;2023-04-30T03:07:56;6.05;;;4.68;;
42614;SDS011;28754;47.700;7.924;2023-04-30T03:10:43;7.30;;;3.92;;
42614;SDS011;28754;47.700;7.924;2023-04-30T03:13:30;6.80;;;3.85;;
42614;SDS011;28754;47.700;7.924;2023-04-30T03:16:18;6.88;;;4.55;;
42614;SDS011;28754;47.700;7.924;2023-04-30T03:19:06;7.55;;;4.28;;
42614;SDS011;28754;47.700;7.924;2023-04-30T03:21:54;7.00;;;4.65;;
42614;SDS011;28754;47.700;7.924;2023-04-30T03:24:41;7.75;;;4.03;;
42614;SDS011;28754;47.700;7.924;2023-04-30T03:27:28;9.15;;;4.25;;
42614;SDS011;28754;47.700;7.924;2023-04-30T03:30:15;8.23;;;4.95;;
42614;SDS011;28754;47.700;7.924;2023-04-30T03:33:02;7.82;;;4.47;;
42614;SDS011;28754;47.700;7.924;2023-04-30T03:35:51;6.82;;;4.28;;
42614;SDS011;28754;47.700;7.924;2023-04-30T03:38:39;6.50;;;3.78;;
42614;SDS011;28754;47.700;7.924;2023-04-30T03:41:27;7.40;;;3.63;;
42614;SDS011;28754;47.700;7.924;2023-04-30T03:44:14;5.28;;;3.63;;
42614;SDS011;28754;47.700;7.924;2023-04-30T03:47:01;5.97;;;3.22;;
42614;SDS011;28754;47.700;7.924;2023-04-30T03:49:48;6.13;;;4.03;;
42614;SDS011;28754;47.700;7.924;2023-04-30T03:52:41;7.05;;;4.00;;
42614;SDS011;28754;47.700;7.924;2023-04-30T03:55:28;5.00;;;3.60;;
42614;SDS011;28754;47.700;7.924;2023-04-30T03:58:15;6.28;;;3.58;;
42614;SDS011;28754;47.700;7.924;2023-04-30T04:05:47;8.23;;;3.53;;
42614;SDS011;28754;47.700;7.924;2023-04-30T04:08:34;5.85;;;3.05;;
42614;SDS011;28754;47.700;7.924;2023-04-30T04:11:21;5.15;;;3.15;;
42614;SDS011;28754;47.700;7.924;2023-04-30T04:14:08;5.40;;;3.72;;
42614;SDS011;28754;47.700;7.924;2023-04-30T04:16:55;7.53;;;4.47;;
42614;SDS011;28754;47.700;7.924;2023-04-30T04:19:45;5.03;;;3.50;;
42614;SDS011;28754;47.700;7.924;2023-04-30T04:22:32;4.72;;;2.95;;
42614;SDS011;28754;47.700;7.924;2023-04-30T04:25:20;4.70;;;2.80;;
42614;SDS011;28754;47.700;7.924;2023-04-30T04:28:09;7.03;;;3.45;;
42614;SDS011;28754;47.700;7.924;2023-04-30T04:30:57;6.72;;;3.47;;
42614;SDS011;28754;47.700;7.924;2023-04-30T04:33:44;5.47;;;2.97;;
42614;SDS011;28754;47.700;7.924;2023-04-30T04:36:31;5.53;;;3.00;;
42614;SDS011;28754;47.700;7.924;2023-04-30T04:39:19;5.97;;;3.42;;
42614;SDS011;28754;47.700;7.924;2023-04-30T04:42:06;5.22;;;3.40;;
42614;SDS011;28754;47.700;7.924;2023-04-30T04:44:53;8.75;;;4.05;;
42614;SDS011;28754;47.700;7.924;2023-04-30T04:47:40;4.72;;;2.85;;
42614;SDS011;28754;47.700;7.924;2023-04-30T04:50:26;6.70;;;2.90;;
42614;SDS011;28754;47.700;7.924;2023-04-30T04:53:13;4.90;;;3.15;;
42614;SDS011;28754;47.700;7.924;2023-04-30T04:56:00;5.22;;;3.22;;
42614;SDS011;28754;47.700;7.924;2023-04-30T04:58:46;5.97;;;3.45;;
42614;SDS011;28754;47.700;7.924;2023-04-30T05:01:33;6.25;;;3.70;;
42614;SDS011;28754;47.700;7.924;2023-04-30T05:04:20;7.35;;;3.22;;
42614;SDS011;28754;47.700;7.924;2023-04-30T05:07:15;5.55;;;3.83;;
42614;SDS011;28754;47.700;7.924;2023-04-30T05:10:57;6.28;;;3.80;;
42614;SDS011;28754;47.700;7.924;2023-04-30T05:19:56;7.53;;;3.55;;
42614;SDS011;28754;47.700;7.924;2023-04-30T05:24:03;4.65;;;2.97;;
42614;SDS011;28754;47.700;7.924;2023-04-30T05:27:33;6.72;;;3.70;;
42614;SDS011;28754;47.700;7.924;2023-04-30T05:31:16;8.35;;;4.78;;
42614;SDS011;28754;47.700;7.924;2023-04-30T05:41:42;6.70;;;3.42;;
42614;SDS011;28754;47.700;7.924;2023-04-30T05:46:17;6.47;;;3.50;;
42614;SDS011;28754;47.700;7.924;2023-04-30T06:03:56;5.43;;;2.80;;
42614;SDS011;28754;47.700;7.924;2023-04-30T06:12:01;4.60;;;3.10;;
42614;SDS011;28754;47.700;7.924;2023-04-30T07:08:31;4.35;;;3.03;;
42614;SDS011;28754;47.700;7.924;2023-04-30T07:23:32;4.72;;;3.03;;
42614;SDS011;28754;47.700;7.924;2023-04-30T07:26:48;4.05;;;2.75;;
42614;SDS011;28754;47.700;7.924;2023-04-30T07:30:21;5.10;;;3.25;;
42614;SDS011;28754;47.700;7.924;2023-04-30T07:56:25;8.52;;;2.50;;
42614;SDS011;28754;47.700;7.924;2023-04-30T08:00:17;4.18;;;2.72;;
42614;SDS011;28754;47.700;7.924;2023-04-30T08:13:46;3.58;;;2.60;;
42614;SDS011;28754;47.700;7.924;2023-04-30T08:38:36;4.47;;;3.08;;
42614;SDS011;28754;47.700;7.924;2023-04-30T08:41:35;4.10;;;2.92;;
42614;SDS011;28754;47.700;7.924;2023-04-30T08:44:37;3.28;;;2.42;;
42614;SDS011;28754;47.700;7.924;2023-04-30T08:47:29;2.60;;;2.22;;
42614;SDS011;28754;47.700;7.924;2023-04-30T08:50:22;3.85;;;2.50;;
42614;SDS011;28754;47.700;7.924;2023-04-30T08:53:09;3.85;;;2.20;;
42614;SDS011;28754;47.700;7.924;2023-04-30T08:55:58;4.22;;;2.40;;
42614;SDS011;28754;47.700;7.924;2023-04-30T08:58:44;3.88;;;2.67;;
42614;SDS011;28754;47.700;7.924;2023-04-30T09:01:31;3.30;;;2.30;;
42614;SDS011;28754;47.700;7.924;2023-04-30T09:04:20;6.63;;;2.20;;
42614;SDS011;28754;47.700;7.924;2023-04-30T09:07:07;3.28;;;2.42;;
42614;SDS011;28754;47.700;7.924;2023-04-30T09:09:56;3.35;;;2.20;;
42614;SDS011;28754;47.700;7.924;2023-04-30T09:13:01;3.38;;;2.33;;
42614;SDS011;28754;47.700;7.924;2023-04-30T09:15:50;4.70;;;2.80;;
42614;SDS011;28754;47.700;7.924;2023-04-30T09:18:40;4.07;;;2.75;;
42614;SDS011;28754;47.700;7.924;2023-04-30T09:21:33;5.10;;;2.65;;
42614;SDS011;28754;47.700;7.924;2023-04-30T09:27:16;3.55;;;2.55;;
42614;SDS011;28754;47.700;7.924;2023-04-30T09:30:04;3.30;;;2.25;;
42614;SDS011;28754;47.700;7.924;2023-04-30T09:32:56;4.40;;;2.25;;
42614;SDS011;28754;47.700;7.924;2023-04-30T09:35:42;3.38;;;2.20;;
42614;SDS011;28754;47.700;7.924;2023-04-30T09:38:31;3.30;;;2.30;;
42614;SDS011;28754;47.700;7.924;2023-04-30T09:41:26;3.50;;;2.00;;
42614;SDS011;28754;47.700;7.924;2023-04-30T09:44:29;3.75;;;2.45;;
42614;SDS011;28754;47.700;7.924;2023-04-30T09:47:21;7.05;;;3.22;;
42614;SDS011;28754;47.700;7.924;2023-04-30T09:50:08;5.25;;;3.22;;
42614;SDS011;28754;47.700;7.924;2023-04-30T09:53:09;3.95;;;3.22;;
42614;SDS011;28754;47.700;7.924;2023-04-30T09:56:05;3.33;;;2.53;;
42614;SDS011;28754;47.700;7.924;2023-04-30T09:58:55;8.10;;;3.42;;
42614;SDS011;28754;47.700;7.924;2023-04-30T10:01:46;5.50;;;2.78;;
42614;SDS011;28754;47.700;7.924;2023-04-30T10:04:42;5.45;;;3.35;;
42614;SDS011;28754;47.700;7.924;2023-04-30T10:07:36;4.07;;;2.80;;
42614;SDS011;28754;47.700;7.924;2023-04-30T10:10:28;15.35;;;6.55;;
42614;SDS011;28754;47.700;7.924;2023-04-30T10:13:17;8.55;;;4.90;;
42614;SDS011;28754;47.700;7.924;2023-04-30T10:19:25;3.85;;;2.65;;
42614;SDS011;28754;47.700;7.924;2023-04-30T10:22:20;3.47;;;2.28;;
42614;SDS011;28754;47.700;7.924;2023-04-30T10:25:08;3.63;;;2.33;;
42614;SDS011;28754;47.700;7.924;2023-04-30T10:27:58;5.53;;;3.30;;
42614;SDS011;28754;47.700;7.924;2023-04-30T10:30:45;2.88;;;2.13;;
42614;SDS011;28754;47.700;7.924;2023-04-30T10:36:36;4.30;;;1.90;;
42614;SDS011;28754;47.700;7.924;2023-04-30T10:39:30;2.83;;;1.85;;
42614;SDS011;28754;47.700;7.924;2023-04-30T10:42:20;3.38;;;2.08;;
42614;SDS011;28754;47.700;7.924;2023-04-30T10:45:10;3.40;;;2.35;;
42614;SDS011;28754;47.700;7.924;2023-04-30T10:48:00;4.40;;;2.30;;
42614;SDS011;28754;47.700;7.924;2023-04-30T10:50:49;2.30;;;1.70;;
42614;SDS011;28754;47.700;7.924;2023-04-30T10:53:54;2.28;;;1.52;;
42614;SDS011;28754;47.700;7.924;2023-04-30T10:56:47;4.28;;;2.00;;
42614;SDS011;28754;47.700;7.924;2023-04-30T11:03:02;3.50;;;2.15;;
42614;SDS011;28754;47.700;7.924;2023-04-30T11:09:13;2.38;;;1.58;;
42614;SDS011;28754;47.700;7.924;2023-04-30T11:12:13;3.72;;;1.85;;
42614;SDS011;28754;47.700;7.924;2023-04-30T11:15:14;3.58;;;1.83;;
42614;SDS011;28754;47.700;7.924;2023-04-30T11:18:05;2.53;;;1.90;;
42614;SDS011;28754;47.700;7.924;2023-04-30T11:21:02;2.78;;;1.88;;
42614;SDS011;28754;47.700;7.924;2023-04-30T11:23:53;1.73;;;1.20;;
42614;SDS011;28754;47.700;7.924;2023-04-30T11:27:34;2.40;;;1.60;;
42614;SDS011;28754;47.700;7.924;2023-04-30T11:30:26;3.35;;;1.38;;
42614;SDS011;28754;47.700;7.924;2023-04-30T11:33:15;2.35;;;1.70;;
42614;SDS011;28754;47.700;7.924;2023-04-30T11:36:07;1.80;;;1.42;;
42614;SDS011;28754;47.700;7.924;2023-04-30T11:38:54;1.98;;;1.70;;
42614;SDS011;28754;47.700;7.924;2023-04-30T11:41:41;1.55;;;1.25;;
42614;SDS011;28754;47.700;7.924;2023-04-30T11:44:28;1.85;;;1.38;;
42614;SDS011;28754;47.700;7.924;2023-04-30T11:47:15;2.60;;;1.55;;
42614;SDS011;28754;47.700;7.924;2023-04-30T11:50:02;2.08;;;1.67;;
42614;SDS011;28754;47.700;7.924;2023-04-30T11:52:49;2.00;;;1.45;;
42614;SDS011;28754;47.700;7.924;2023-04-30T11:55:38;3.17;;;1.70;;
42614;SDS011;28754;47.700;7.924;2023-04-30T11:58:26;4.32;;;2.50;;
42614;SDS011;28754;47.700;7.924;2023-04-30T12:01:13;2.42;;;1.83;;
42614;SDS011;28754;47.700;7.924;2023-04-30T12:04:01;2.20;;;1.40;;
42614;SDS011;28754;47.700;7.924;2023-04-30T12:06:49;2.70;;;2.05;;
42614;SDS011;28754;47.700;7.924;2023-04-30T12:09:50;4.07;;;2.17;;
42614;SDS011;28754;47.700;7.924;2023-04-30T12:12:43;2.00;;;1.75;;
42614;SDS011;28754;47.700;7.924;2023-04-30T12:15:32;2.30;;;1.50;;
42614;SDS011;28754;47.700;7.924;2023-04-30T12:18:19;2.50;;;2.28;;
42614;SDS011;28754;47.700;7.924;2023-04-30T12:21:06;1.98;;;1.67;;
42614;SDS011;28754;47.700;7.924;2023-04-30T12:23:52;2.28;;;1.38;;
42614;SDS011;28754;47.700;7.924;2023-04-30T12:26:39;2.35;;;1.80;;
42614;SDS011;28754;47.700;7.924;2023-04-30T12:29:27;1.73;;;1.33;;
42614;SDS011;28754;47.700;7.924;2023-04-30T12:32:14;4.10;;;1.73;;
42614;SDS011;28754;47.700;7.924;2023-04-30T12:35:04;2.97;;;1.27;;
42614;SDS011;28754;47.700;7.924;2023-04-30T12:37:52;1.85;;;1.40;;
42614;SDS011;28754;47.700;7.924;2023-04-30T12:40:50;2.50;;;1.30;;
42614;SDS011;28754;47.700;7.924;2023-04-30T12:43:36;2.72;;;1.30;;
42614;SDS011;28754;47.700;7.924;2023-04-30T12:46:26;1.70;;;1.38;;
42614;SDS011;28754;47.700;7.924;2023-04-30T12:49:27;2.47;;;1.85;;
42614;SDS011;28754;47.700;7.924;2023-04-30T12:52:21;1.85;;;1.50;;
42614;SDS011;28754;47.700;7.924;2023-04-30T12:55:18;2.33;;;1.52;;
42614;SDS011;28754;47.700;7.924;2023-04-30T12:58:10;3.85;;;1.75;;
42614;SDS011;28754;47.700;7.924;2023-04-30T13:00:59;2.25;;;1.58;;
42614;SDS011;28754;47.700;7.924;2023-04-30T13:03:46;4.38;;;2.17;;
42614;SDS011;28754;47.700;7.924;2023-04-30T13:06:33;4.45;;;2.78;;
42614;SDS011;28754;47.700;7.924;2023-04-30T13:09:20;1.95;;;1.35;;
42614;SDS011;28754;47.700;7.924;2023-04-30T13:12:07;8.27;;;3.60;;
42614;SDS011;28754;47.700;7.924;2023-04-30T13:14:54;3.97;;;2.30;;
42614;SDS011;28754;47.700;7.924;2023-04-30T13:17:42;5.10;;;3.08;;
42614;SDS011;28754;47.700;7.924;2023-04-30T13:20:29;8.45;;;4.13;;
42614;SDS011;28754;47.700;7.924;2023-04-30T13:23:16;4.10;;;2.58;;
42614;SDS011;28754;47.700;7.924;2023-04-30T13:26:03;4.43;;;2.72;;
42614;SDS011;28754;47.700;7.924;2023-04-30T13:28:50;3.58;;;2.55;;
42614;SDS011;28754;47.700;7.924;2023-04-30T13:31:36;4.00;;;2.13;;
42614;SDS011;28754;47.700;7.924;2023-04-30T13:34:23;4.20;;;2.97;;
42614;SDS011;28754;47.700;7.924;2023-04-30T13:37:10;4.13;;;2.40;;
42614;SDS011;28754;47.700;7.924;2023-04-30T13:39:57;6.05;;;2.67;;
42614;SDS011;28754;47.700;7.924;2023-04-30T13:42:44;2.03;;;1.55;;
42614;SDS011;28754;47.700;7.924;2023-04-30T13:45:32;3.63;;;1.92;;
42614;SDS011;28754;47.700;7.924;2023-04-30T13:48:19;3.97;;;2.22;;
42614;SDS011;28754;47.700;7.924;2023-04-30T13:51:06;5.32;;;2.42;;
42614;SDS011;28754;47.700;7.924;2023-04-30T13:53:53;3.80;;;1.95;;
42614;SDS011;28754;47.700;7.924;2023-04-30T13:56:39;3.47;;;2.40;;
42614;SDS011;28754;47.700;7.924;2023-04-30T13:59:26;6.88;;;2.60;;
42614;SDS011;28754;47.700;7.924;2023-04-30T14:02:13;2.90;;;1.92;;
42614;SDS011;28754;47.700;7.924;2023-04-30T14:05:01;2.75;;;1.77;;
42614;SDS011;28754;47.700;7.924;2023-04-30T14:07:49;2.70;;;1.50;;
42614;SDS011;28754;47.700;7.924;2023-04-30T14:10:36;4.25;;;2.60;;
42614;SDS011;28754;47.700;7.924;2023-04-30T14:13:23;2.88;;;1.90;;
42614;SDS011;28754;47.700;7.924;2023-04-30T14:16:09;2.88;;;1.58;;
42614;SDS011;28754;47.700;7.924;2023-04-30T14:18:56;1.85;;;1.38;;
42614;SDS011;28754;47.700;7.924;2023-04-30T14:21:43;4.25;;;1.58;;
42614;SDS011;28754;47.700;7.924;2023-04-30T14:24:29;1.33;;;1.10;;
42614;SDS011;28754;47.700;7.924;2023-04-30T14:27:16;3.35;;;1.75;;
42614;SDS011;28754;47.700;7.924;2023-04-30T14:30:03;3.30;;;2.10;;
42614;SDS011;28754;47.700;7.924;2023-04-30T14:32:51;3.08;;;2.25;;
42614;SDS011;28754;47.700;7.924;2023-04-30T14:35:37;2.65;;;1.80;;
42614;SDS011;28754;47.700;7.924;2023-04-30T14:38:30;3.40;;;1.42;;
42614;SDS011;28754;47.700;7.924;2023-04-30T14:41:17;2.92;;;1.80;;
42614;SDS011;28754;47.700;7.924;2023-04-30T14:44:04;1.58;;;1.38;;
42614;SDS011;28754;47.700;7.924;2023-04-30T14:46:50;1.73;;;1.40;;
42614;SDS011;28754;47.700;7.924;2023-04-30T14:49:37;2.97;;;1.27;;
42614;SDS011;28754;47.700;7.924;2023-04-30T14:52:24;4.85;;;2.30;;
42614;SDS011;28754;47.700;7.924;2023-04-30T14:55:11;1.92;;;1.35;;
42614;SDS011;28754;47.700;7.924;2023-04-30T14:57:58;5.45;;;1.65;;
42614;SDS011;28754;47.700;7.924;2023-04-30T15:00:45;3.28;;;1.67;;
42614;SDS011;28754;47.700;7.924;2023-04-30T15:03:33;1.90;;;1.70;;
42614;SDS011;28754;47.700;7.924;2023-04-30T15:06:20;2.20;;;1.67;;
42614;SDS011;28754;47.700;7.924;2023-04-30T15:09:06;3.47;;;2.10;;
42614;SDS011;28754;47.700;7.924;2023-04-30T15:11:53;2.33;;;1.60;;
42614;SDS011;28754;47.700;7.924;2023-04-30T15:14:40;1.30;;;1.20;;
42614;SDS011;28754;47.700;7.924;2023-04-30T15:17:27;2.92;;;1.80;;
42614;SDS011;28754;47.700;7.924;2023-04-30T15:20:14;2.88;;;1.80;;
42614;SDS011;28754;47.700;7.924;2023-04-30T15:23:01;2.72;;;1.75;;
42614;SDS011;28754;47.700;7.924;2023-04-30T15:25:50;2.30;;;1.48;;
42614;SDS011;28754;47.700;7.924;2023-04-30T15:28:37;3.78;;;2.28;;
42614;SDS011;28754;47.700;7.924;2023-04-30T15:31:24;3.22;;;1.90;;
42614;SDS011;28754;47.700;7.924;2023-04-30T15:38:43;8.02;;;2.45;;
42614;SDS011;28754;47.700;7.924;2023-04-30T15:41:29;2.05;;;1.55;;
42614;SDS011;28754;47.700;7.924;2023-04-30T15:44:16;3.97;;;1.90;;
42614;SDS011;28754;47.700;7.924;2023-04-30T15:47:03;2.05;;;1.48;;
42614;SDS011;28754;47.700;7.924;2023-04-30T15:49:55;3.30;;;1.60;;
42614;SDS011;28754;47.700;7.924;2023-04-30T15:52:50;1.52;;;1.40;;
42614;SDS011;28754;47.700;7.924;2023-04-30T15:56:02;1.98;;;1.60;;
42614;SDS011;28754;47.700;7.924;2023-04-30T15:58:55;3.60;;;2.05;;
42614;SDS011;28754;47.700;7.924;2023-04-30T16:01:42;2.20;;;1.75;;
42614;SDS011;28754;47.700;7.924;2023-04-30T16:04:29;3.25;;;2.70;;
42614;SDS011;28754;47.700;7.924;2023-04-30T16:07:16;3.10;;;2.28;;
42614;SDS011;28754;47.700;7.924;2023-04-30T16:10:03;4.35;;;3.03;;
42614;SDS011;28754;47.700;7.924;2023-04-30T16:12:55;2.97;;;2.10;;
42614;SDS011;28754;47.700;7.924;2023-04-30T16:15:44;3.60;;;2.20;;
42614;SDS011;28754;47.700;7.924;2023-04-30T16:18:34;4.60;;;3.28;;
42614;SDS011;28754;47.700;7.924;2023-04-30T16:21:22;3.78;;;2.78;;
42614;SDS011;28754;47.700;7.924;2023-04-30T16:24:11;3.38;;;2.63;;
42614;SDS011;28754;47.700;7.924;2023-04-30T16:27:00;5.43;;;1.92;;
42614;SDS011;28754;47.700;7.924;2023-04-30T16:29:47;1.90;;;1.60;;
42614;SDS011;28754;47.700;7.924;2023-04-30T16:32:39;2.78;;;1.55;;
42614;SDS011;28754;47.700;7.924;2023-04-30T16:35:26;1.88;;;1.75;;
42614;SDS011;28754;47.700;7.924;2023-04-30T16:38:16;1.85;;;1.58;;
42614;SDS011;28754;47.700;7.924;2023-04-30T16:41:03;4.03;;;1.80;;
42614;SDS011;28754;47.700;7.924;2023-04-30T16:43:50;4.30;;;2.30;;
42614;SDS011;28754;47.700;7.924;2023-04-30T16:46:37;2.17;;;1.77;;
42614;SDS011;28754;47.700;7.924;2023-04-30T16:49:24;3.67;;;1.85;;
42614;SDS011;28754;47.700;7.924;2023-04-30T16:52:11;4.30;;;2.15;;
42614;SDS011;28754;47.700;7.924;2023-04-30T16:55:00;4.10;;;1.85;;
42614;SDS011;28754;47.700;7.924;2023-04-30T16:57:48;3.38;;;1.90;;
42614;SDS011;28754;47.700;7.924;2023-04-30T17:00:35;3.50;;;1.90;;
42614;SDS011;28754;47.700;7.924;2023-04-30T17:03:22;2.67;;;2.00;;
42614;SDS011;28754;47.700;7.924;2023-04-30T17:06:09;3.22;;;1.70;;
42614;SDS011;28754;47.700;7.924;2023-04-30T17:08:56;3.10;;;2.50;;
42614;SDS011;28754;47.700;7.924;2023-04-30T17:11:44;5.38;;;2.83;;
42614;SDS011;28754;47.700;7.924;2023-04-30T17:14:31;2.35;;;1.98;;
42614;SDS011;28754;47.700;7.924;2023-04-30T17:17:18;2.92;;;1.90;;
42614;SDS011;28754;47.700;7.924;2023-04-30T17:20:05;2.97;;;2.40;;
42614;SDS011;28754;47.700;7.924;2023-04-30T17:22:53;5.35;;;2.33;;
42614;SDS011;28754;47.700;7.924;2023-04-30T17:25:40;2.30;;;1.85;;
42614;SDS011;28754;47.700;7.924;2023-04-30T17:28:28;2.92;;;1.92;;
42614;SDS011;28754;47.700;7.924;2023-04-30T17:31:14;2.92;;;2.10;;
42614;SDS011;28754;47.700;7.924;2023-04-30T17:34:01;3.70;;;3.20;;
42614;SDS011;28754;47.700;7.924;2023-04-30T17:36:48;2.75;;;2.22;;
42614;SDS011;28754;47.700;7.924;2023-04-30T17:39:35;2.42;;;1.85;;
42614;SDS011;28754;47.700;7.924;2023-04-30T17:42:21;3.72;;;2.05;;
42614;SDS011;28754;47.700;7.924;2023-04-30T17:45:08;2.45;;;2.08;;
42614;SDS011;28754;47.700;7.924;2023-04-30T17:47:56;2.38;;;1.92;;
42614;SDS011;28754;47.700;7.924;2023-04-30T17:50:42;2.65;;;1.98;;
42614;SDS011;28754;47.700;7.924;2023-04-30T17:53:29;3.90;;;3.10;;
42614;SDS011;28754;47.700;7.924;2023-04-30T17:56:16;3.30;;;1.75;;
42614;SDS011;28754;47.700;7.924;2023-04-30T17:59:03;5.45;;;2.42;;
42614;SDS011;28754;47.700;7.924;2023-04-30T18:01:49;3.17;;;2.30;;
42614;SDS011;28754;47.700;7.924;2023-04-30T18:04:36;2.53;;;1.95;;
42614;SDS011;28754;47.700;7.924;2023-04-30T18:07:26;3.38;;;1.90;;
42614;SDS011;28754;47.700;7.924;2023-04-30T18:14:09;2.70;;;2.28;;
42614;SDS011;28754;47.700;7.924;2023-04-30T18:16:56;2.50;;;1.98;;
42614;SDS011;28754;47.700;7.924;2023-04-30T18:19:43;3.95;;;2.20;;
42614;SDS011;28754;47.700;7.924;2023-04-30T18:22:31;1.83;;;1.67;;
42614;SDS011;28754;47.700;7.924;2023-04-30T18:25:18;2.65;;;1.90;;
42614;SDS011;28754;47.700;7.924;2023-04-30T18:28:05;2.30;;;1.98;;
42614;SDS011;28754;47.700;7.924;2023-04-30T18:30:55;3.47;;;2.00;;
42614;SDS011;28754;47.700;7.924;2023-04-30T18:33:41;3.30;;;1.95;;
42614;SDS011;28754;47.700;7.924;2023-04-30T18:36:28;3.47;;;2.28;;
42614;SDS011;28754;47.700;7.924;2023-04-30T18:39:16;4.25;;;2.17;;
42614;SDS011;28754;47.700;7.924;2023-04-30T18:42:07;3.55;;;2.35;;
42614;SDS011;28754;47.700;7.924;2023-04-30T18:44:55;2.28;;;1.88;;
42614;SDS011;28754;47.700;7.924;2023-04-30T18:47:45;3.22;;;2.38;;
42614;SDS011;28754;47.700;7.924;2023-04-30T18:50:31;2.65;;;1.95;;
42614;SDS011;28754;47.700;7.924;2023-04-30T18:53:18;3.08;;;2.13;;
42614;SDS011;28754;47.700;7.924;2023-04-30T18:56:05;2.90;;;1.85;;
42614;SDS011;28754;47.700;7.924;2023-04-30T18:58:52;3.13;;;2.08;;
42614;SDS011;28754;47.700;7.924;2023-04-30T19:01:47;4.10;;;2.75;;
42614;SDS011;28754;47.700;7.924;2023-04-30T19:04:36;3.75;;;2.20;;
42614;SDS011;28754;47.700;7.924;2023-04-30T19:07:26;3.47;;;2.33;;
42614;SDS011;28754;47.700;7.924;2023-04-30T19:10:12;3.33;;;2.17;;
42614;SDS011;28754;47.700;7.924;2023-04-30T19:13:00;3.90;;;2.58;;
42614;SDS011;28754;47.700;7.924;2023-04-30T19:15:47;7.00;;;3.22;;
42614;SDS011;28754;47.700;7.924;2023-04-30T19:18:34;3.95;;;2.70;;
42614;SDS011;28754;47.700;7.924;2023-04-30T19:21:23;4.25;;;2.55;;
42614;SDS011;28754;47.700;7.924;2023-04-30T19:24:11;4.70;;;3.13;;
42614;SDS011;28754;47.700;7.924;2023-04-30T19:27:03;2.30;;;2.08;;
42614;SDS011;28754;47.700;7.924;2023-04-30T19:29:56;4.88;;;3.35;;
42614;SDS011;28754;47.700;7.924;2023-04-30T19:32:48;7.22;;;3.92;;
42614;SDS011;28754;47.700;7.924;2023-04-30T19:35:42;3.30;;;2.45;;
42614;SDS011;28754;47.700;7.924;2023-04-30T19:38:33;3.50;;;2.72;;
42614;SDS011;28754;47.700;7.924;2023-04-30T19:41:20;3.75;;;2.55;;
42614;SDS011;28754;47.700;7.924;2023-04-30T19:44:09;4.07;;;2.50;;
42614;SDS011;28754;47.700;7.924;2023-04-30T19:46:59;2.47;;;1.83;;
42614;SDS011;28754;47.700;7.924;2023-04-30T19:49:46;3.40;;;2.25;;
42614;SDS011;28754;47.700;7.924;2023-04-30T19:52:55;3.00;;;2.33;;
42614;SDS011;28754;47.700;7.924;2023-04-30T19:55:44;6.47;;;3.70;;
42614;SDS011;28754;47.700;7.924;2023-04-30T19:58:32;5.55;;;2.88;;
42614;SDS011;28754;47.700;7.924;2023-04-30T20:01:19;4.00;;;2.50;;
42614;SDS011;28754;47.700;7.924;2023-04-30T20:04:11;2.85;;;2.17;;
42614;SDS011;28754;47.700;7.924;2023-04-30T20:07:06;3.45;;;2.10;;
42614;SDS011;28754;47.700;7.924;2023-04-30T20:09:56;3.28;;;2.38;;
42614;SDS011;28754;47.700;7.924;2023-04-30T20:13:54;3.03;;;2.17;;
42614;SDS011;28754;47.700;7.924;2023-04-30T20:16:49;3.13;;;2.25;;
42614;SDS011;28754;47.700;7.924;2023-04-30T20:19:46;2.53;;;2.00;;
42614;SDS011;28754;47.700;7.924;2023-04-30T20:22:42;3.25;;;2.20;;
42614;SDS011;28754;47.700;7.924;2023-04-30T20:26:40;2.78;;;2.10;;
42614;SDS011;28754;47.700;7.924;2023-04-30T20:33:11;2.75;;;2.03;;
42614;SDS011;28754;47.700;7.924;2023-04-30T20:35:59;3.03;;;2.40;;
42614;SDS011;28754;47.700;7.924;2023-04-30T20:38:47;4.45;;;2.20;;